Time;durP1;ratioP1;P1;durP2;ratioP2;P2;SDS_P1;SDS_P2;PMS_P1;PMS_P2;Temp;Humidity;BMP_temperature;BMP_pressure;BME280_temperature;BME280_humidity;BME280_pressure;Samples;Min_cycle;Max_cycle;Signal;HPM_P1;HPM_P2
2022/01/03 00:01:02;;;;;;;;;;;9.20;99.90;;;;;;5072872;28;20036;-60
2022/01/03 00:03:28;;;;;;;12.70;1.98;;;9.20;99.90;;;;;;5090434;28;20266;-59
2022/01/03 00:05:54;;;;;;;12.30;2.43;;;9.20;99.90;;;;;;5093522;28;20050;-57
2022/01/03 00:08:21;;;;;;;15.15;1.27;;;9.20;99.90;;;;;;5093672;28;20051;-58
2022/01/03 00:10:46;;;;;;;12.48;1.25;;;9.30;99.90;;;;;;5094744;28;20048;-58
2022/01/03 00:13:12;;;;;;;13.30;1.98;;;9.30;99.90;;;;;;5090569;28;20063;-59
2022/01/03 00:15:38;;;;;;;13.07;2.47;;;9.30;99.90;;;;;;5089533;28;20097;-59
2022/01/03 00:18:04;;;;;;;15.33;1.77;;;9.30;99.90;;;;;;5077513;28;20036;-59
2022/01/03 00:20:29;;;;;;;12.43;1.73;;;9.30;99.90;;;;;;5106090;28;20043;-59
2022/01/03 00:22:59;;;;;;;11.63;1.67;;;9.40;99.90;;;;;;5090057;28;20040;-57
2022/01/03 00:25:26;;;;;;;15.10;2.33;;;9.50;99.90;;;;;;5089836;28;20516;-59
2022/01/03 00:28:12;;;;;;;15.57;2.53;;;9.50;99.90;;;;;;5093113;28;20649;-59
2022/01/03 00:30:39;;;;;;;10.93;1.65;;;9.50;99.90;;;;;;5058202;28;20497;-59
2022/01/03 00:33:06;;;;;;;20.35;2.38;;;9.50;99.90;;;;;;5093522;28;20412;-59
2022/01/03 00:35:38;;;;;;;16.25;2.08;;;9.60;99.90;;;;;;5092825;28;20039;-57
2022/01/03 00:38:07;;;;;;;14.48;2.15;;;9.60;99.90;;;;;;5092980;28;20393;-55
2022/01/03 00:40:33;;;;;;;20.33;1.88;;;9.70;99.90;;;;;;5092609;28;20044;-59
2022/01/03 00:42:59;;;;;;;18.90;2.05;;;9.70;99.90;;;;;;5093263;28;20052;-59
2022/01/03 00:45:25;;;;;;;17.30;2.90;;;9.70;99.90;;;;;;5093063;28;20040;-59
2022/01/03 00:47:51;;;;;;;20.00;2.17;;;9.70;99.90;;;;;;5093347;28;20051;-57
2022/01/03 00:50:18;;;;;;;17.83;1.73;;;9.80;99.90;;;;;;5092701;28;20039;-57
2022/01/03 00:52:47;;;;;;;13.68;1.90;;;9.70;99.90;;;;;;5101568;28;20028;-57
2022/01/03 00:55:13;;;;;;;18.33;2.33;;;9.80;99.90;;;;;;5092589;28;20080;-58
2022/01/03 00:57:41;;;;;;;20.55;3.03;;;9.70;99.90;;;;;;5105456;28;20436;-57
2022/01/03 01:00:09;;;;;;;19.92;2.10;;;9.80;99.90;;;;;;5074457;28;20485;-59
2022/01/03 01:02:37;;;;;;;14.60;2.65;;;9.80;99.90;;;;;;5106782;28;20040;-57
2022/01/03 01:05:06;;;;;;;11.32;2.33;;;9.80;99.90;;;;;;5093328;28;20128;-57
2022/01/03 01:07:32;;;;;;;17.55;2.53;;;9.80;99.90;;;;;;5082700;28;20048;-57
2022/01/03 01:10:03;;;;;;;;;;;9.80;99.90;;;;;;5092898;28;20047;-57
2022/01/03 01:12:30;;;;;;;19.77;3.22;;;9.80;99.90;;;;;;5093021;28;19963;-58
2022/01/03 01:14:56;;;;;;;15.05;1.73;;;9.90;99.90;;;;;;5103801;28;20036;-57
2022/01/03 01:17:25;;;;;;;15.83;2.23;;;9.90;99.90;;;;;;5092630;28;20096;-57
2022/01/03 01:19:50;;;;;;;16.45;2.30;;;9.90;99.90;;;;;;5092015;28;20051;-59
2022/01/03 01:22:16;;;;;;;20.30;2.63;;;9.90;99.90;;;;;;5074004;28;20044;-57
2022/01/03 01:24:49;;;;;;;18.20;1.90;;;9.90;99.90;;;;;;5092229;28;20042;-59
2022/01/03 01:29:59;;;;;;;14.68;1.65;;;9.90;99.90;;;;;;5092090;28;20262;-58
2022/01/03 01:32:26;;;;;;;20.30;2.93;;;9.90;99.90;;;;;;5091785;28;20485;-60
2022/01/03 01:34:54;;;;;;;15.75;2.33;;;9.90;99.90;;;;;;5073982;28;20051;-58
2022/01/03 01:37:22;;;;;;;14.25;2.55;;;9.90;99.90;;;;;;5090937;28;20043;-58
2022/01/03 01:39:49;;;;;;;18.95;2.28;;;9.90;99.90;;;;;;5092039;28;20059;-59
2022/01/03 01:42:17;;;;;;;16.27;2.03;;;9.90;99.90;;;;;;5092031;28;20036;-59
2022/01/03 01:44:48;;;;;;;17.25;1.73;;;9.90;99.90;;;;;;5091954;28;20396;-58
2022/01/03 01:47:14;;;;;;;17.30;1.67;;;9.90;99.90;;;;;;5091723;28;20059;-59
2022/01/03 01:49:46;;;;;;;24.20;2.72;;;9.90;99.90;;;;;;5091977;28;20040;-58
2022/01/03 01:52:23;;;;;;;16.88;2.75;;;9.90;99.90;;;;;;5073911;28;20488;-58
2022/01/03 01:54:59;;;;;;;17.60;2.17;;;10.00;99.90;;;;;;5091678;28;20051;-57
2022/01/03 01:57:54;;;;;;;20.17;2.33;;;10.00;99.90;;;;;;5091090;28;20040;-59
2022/01/03 02:00:20;;;;;;;15.05;2.10;;;10.00;99.90;;;;;;5091602;28;20381;-59
2022/01/03 02:02:59;;;;;;;13.63;1.58;;;9.90;99.90;;;;;;5091687;28;20051;-58
2022/01/03 02:05:33;;;;;;;13.65;1.98;;;9.90;99.90;;;;;;5056451;28;20044;-59
2022/01/03 02:08:10;;;;;;;17.73;1.98;;;9.90;99.90;;;;;;5091058;28;20683;-59
2022/01/03 02:10:41;;;;;;;20.45;3.25;;;10.00;99.90;;;;;;5091277;28;20379;-59
2022/01/03 02:13:07;;;;;;;15.05;2.10;;;10.00;99.90;;;;;;5091424;28;20115;-58
2022/01/03 02:15:35;;;;;;;17.20;2.60;;;10.00;99.90;;;;;;5090964;28;20124;-58
2022/01/03 02:18:00;;;;;;;18.02;3.15;;;10.00;99.90;;;;;;5091063;28;20036;-58
2022/01/03 02:20:28;;;;;;;19.52;2.88;;;10.00;99.90;;;;;;5090779;28;20081;-59
2022/01/03 02:22:55;;;;;;;11.75;1.75;;;10.00;99.90;;;;;;5091251;28;20032;-58
2022/01/03 02:25:22;;;;;;;16.52;2.45;;;9.90;99.90;;;;;;5072842;28;20123;-59
2022/01/03 02:27:50;;;;;;;16.20;2.47;;;9.90;99.90;;;;;;5090887;28;20043;-59
2022/01/03 02:30:19;;;;;;;17.02;3.03;;;9.90;99.90;;;;;;5072571;28;20557;-58
2022/01/03 02:32:45;;;;;;;17.77;2.90;;;9.80;99.90;;;;;;5090466;28;20349;-59
2022/01/03 02:35:11;;;;;;;20.37;2.90;;;9.80;99.90;;;;;;5090903;28;20511;-59
2022/01/03 02:37:38;;;;;;;18.30;3.60;;;9.80;99.90;;;;;;5090542;28;20040;-58
2022/01/03 02:40:06;;;;;;;16.20;1.40;;;9.70;99.90;;;;;;5090705;28;20489;-59
2022/01/03 02:42:32;;;;;;;23.17;4.35;;;9.70;99.90;;;;;;5090734;28;20085;-59
2022/01/03 02:44:59;;;;;;;14.32;1.98;;;9.70;99.90;;;;;;5090563;28;20111;-57
2022/01/03 02:47:24;;;;;;;25.23;2.00;;;9.60;99.90;;;;;;5090360;28;20107;-59
2022/01/03 02:49:50;;;;;;;23.40;2.30;;;9.60;99.90;;;;;;5090203;28;20051;-58
2022/01/03 02:52:16;;;;;;;13.07;2.23;;;9.60;99.90;;;;;;5090920;28;20047;-60
2022/01/03 02:54:41;;;;;;;18.00;2.97;;;9.60;99.90;;;;;;5090387;28;20039;-57
2022/01/03 02:57:07;;;;;;;27.37;3.17;;;9.60;99.90;;;;;;5090619;28;20373;-60
2022/01/03 02:59:33;;;;;;;19.45;2.35;;;9.60;99.90;;;;;;5090404;28;20123;-60
2022/01/03 03:01:59;;;;;;;12.50;2.10;;;9.60;99.90;;;;;;5090982;28;20036;-59
2022/01/03 03:04:24;;;;;;;16.67;1.77;;;9.60;99.90;;;;;;5090512;28;20485;-58
2022/01/03 03:06:50;;;;;;;14.10;1.70;;;9.50;99.90;;;;;;5096095;28;20127;-58
2022/01/03 03:09:16;;;;;;;18.40;3.03;;;9.50;99.90;;;;;;5078347;28;20044;-59
2022/01/03 03:11:42;;;;;;;13.43;2.13;;;9.50;99.90;;;;;;5092217;28;20134;-58
2022/01/03 03:14:08;;;;;;;18.30;3.22;;;9.50;99.90;;;;;;5090714;28;20270;-58
2022/01/03 03:16:34;;;;;;;25.25;2.70;;;9.50;99.90;;;;;;5089902;28;20485;-58
2022/01/03 03:19:00;;;;;;;17.15;2.08;;;9.60;99.90;;;;;;5090296;28;20028;-58
2022/01/03 03:21:30;;;;;;;16.10;2.30;;;9.60;99.90;;;;;;5090528;28;20043;-57
2022/01/03 03:23:59;;;;;;;15.05;2.58;;;9.50;99.90;;;;;;5072221;28;20512;-58
2022/01/03 03:26:25;;;;;;;19.95;2.42;;;9.50;99.90;;;;;;5090158;28;20181;-58
2022/01/03 03:28:50;;;;;;;19.67;2.77;;;9.50;99.90;;;;;;5055141;28;20118;-58
2022/01/03 03:31:17;;;;;;;24.90;2.83;;;9.50;99.90;;;;;;5089818;28;20170;-59
2022/01/03 03:33:42;;;;;;;21.60;4.53;;;9.50;99.90;;;;;;5070813;28;20051;-59
2022/01/03 03:36:08;;;;;;;16.17;3.13;;;9.50;99.90;;;;;;5089229;28;20036;-59
2022/01/03 03:38:34;;;;;;;21.27;2.87;;;9.50;99.90;;;;;;5089954;28;20116;-59
2022/01/03 03:41:01;;;;;;;31.52;3.97;;;9.50;99.90;;;;;;5090097;28;20277;-59
2022/01/03 03:43:27;;;;;;;22.15;2.92;;;9.60;99.90;;;;;;5072175;28;20033;-59
2022/01/03 03:45:52;;;;;;;25.97;3.73;;;9.60;99.90;;;;;;5089528;28;20382;-59
2022/01/03 03:48:19;;;;;;;25.17;2.67;;;9.60;99.90;;;;;;5090153;28;20040;-59
2022/01/03 03:50:46;;;;;;;23.42;3.20;;;9.60;99.90;;;;;;5090027;28;20081;-59
2022/01/03 03:53:12;;;;;;;21.13;3.05;;;9.60;99.90;;;;;;5090165;28;20044;-59
2022/01/03 03:55:38;;;;;;;20.13;2.88;;;9.60;99.90;;;;;;5089515;28;20047;-59
2022/01/03 03:58:04;;;;;;;24.40;2.53;;;9.60;99.90;;;;;;5089950;28;20119;-57
2022/01/03 04:00:32;;;;;;;26.25;3.05;;;9.60;99.90;;;;;;5089681;28;20032;-58
2022/01/03 04:02:57;;;;;;;23.40;5.30;;;9.60;99.90;;;;;;5093818;28;20111;-59
2022/01/03 04:05:23;;;;;;;20.27;2.72;;;9.60;99.90;;;;;;5093619;28;20112;-59
2022/01/03 04:07:49;;;;;;;25.33;3.53;;;9.60;99.90;;;;;;5094119;28;20443;-59
2022/01/03 04:10:17;;;;;;;19.17;4.10;;;9.60;99.90;;;;;;5093955;28;20111;-60
2022/01/03 04:12:46;;;;;;;21.90;2.80;;;9.60;99.90;;;;;;5093579;28;20646;-59
2022/01/03 04:15:13;;;;;;;25.23;4.70;;;9.60;99.90;;;;;;5093155;28;20044;-59
2022/01/03 04:17:39;;;;;;;24.35;4.13;;;9.70;99.90;;;;;;5093370;28;20044;-58
2022/01/03 04:20:05;;;;;;;18.65;2.67;;;9.70;99.90;;;;;;5075207;28;20055;-59
2022/01/03 04:22:31;;;;;;;23.23;4.55;;;9.70;99.90;;;;;;5093751;28;20036;-59
2022/01/03 04:24:57;;;;;;;25.73;3.05;;;9.70;99.90;;;;;;5093143;28;20047;-59
2022/01/03 04:27:23;;;;;;;24.10;3.42;;;9.70;99.90;;;;;;5093041;28;20122;-59
2022/01/03 04:29:50;;;;;;;28.02;4.50;;;9.70;99.90;;;;;;5093458;28;20138;-59
2022/01/03 04:32:16;;;;;;;23.80;3.50;;;9.70;99.90;;;;;;5093168;28;20500;-59
2022/01/03 04:34:42;;;;;;;24.70;3.00;;;9.70;99.90;;;;;;5093260;28;20288;-59
2022/01/03 04:37:08;;;;;;;;;;;9.70;99.90;;;;;;5093557;28;20300;-59
2022/01/03 04:39:34;;;;;;;21.30;2.80;;;9.70;99.90;;;;;;5093413;28;19915;-59
2022/01/03 04:41:59;;;;;;;16.43;3.13;;;9.70;99.90;;;;;;5093032;28;20507;-59
2022/01/03 04:44:25;;;;;;;24.00;4.30;;;9.70;99.90;;;;;;5093463;28;20267;-59
2022/01/03 04:46:52;;;;;;;24.47;3.20;;;9.70;99.90;;;;;;5092612;28;20062;-59
2022/01/03 04:49:18;;;;;;;30.35;4.70;;;9.70;99.90;;;;;;5093024;28;20327;-59
2022/01/03 04:51:44;;;;;;;20.27;2.58;;;9.70;99.90;;;;;;5092727;28;20048;-59
2022/01/03 04:54:09;;;;;;;23.83;3.37;;;9.70;99.90;;;;;;5074823;28;20313;-59
2022/01/03 04:56:35;;;;;;;27.30;5.33;;;9.70;99.90;;;;;;5091906;28;20090;-60
2022/01/03 04:59:02;;;;;;;24.67;3.53;;;9.70;99.90;;;;;;5092893;28;20039;-59
2022/01/03 05:01:28;;;;;;;26.65;3.78;;;9.70;99.90;;;;;;5074645;28;20032;-59
2022/01/03 05:03:53;;;;;;;34.87;4.10;;;9.70;99.90;;;;;;5092850;28;20189;-57
2022/01/03 05:06:19;;;;;;;26.20;3.97;;;9.70;99.90;;;;;;5092403;28;20050;-59
2022/01/03 05:08:46;;;;;;;30.25;3.75;;;9.70;99.90;;;;;;5092522;28;20105;-60
2022/01/03 05:11:11;;;;;;;;;;;9.80;99.90;;;;;;5092671;28;20043;-59
2022/01/03 05:13:37;;;;;;;27.58;4.35;;;9.70;99.90;;;;;;5092524;28;19920;-58
2022/01/03 05:16:03;;;;;;;20.30;3.27;;;9.80;99.90;;;;;;5092078;28;20044;-59
2022/01/03 05:18:29;;;;;;;;;;;9.80;99.90;;;;;;5092800;28;20229;-58
2022/01/03 05:20:55;;;;;;;25.15;4.47;;;9.80;99.90;;;;;;5092429;28;20002;-59
2022/01/03 05:23:21;;;;;;;23.80;3.03;;;9.80;99.90;;;;;;5074113;28;20032;-58
2022/01/03 05:25:46;;;;;;;20.55;3.03;;;9.80;99.90;;;;;;5091647;28;20093;-56
2022/01/03 05:28:12;;;;;;;27.33;4.20;;;9.80;99.90;;;;;;5074179;28;20036;-58
2022/01/03 05:30:38;;;;;;;31.08;4.78;;;9.70;99.90;;;;;;5091975;28;20119;-59
2022/01/03 05:33:04;;;;;;;25.43;4.40;;;9.80;99.90;;;;;;5092370;28;20441;-58
2022/01/03 05:35:29;;;;;;;22.58;3.30;;;9.70;99.90;;;;;;5091824;28;20386;-56
2022/01/03 05:37:55;;;;;;;36.63;4.50;;;9.70;99.90;;;;;;5091900;28;20043;-59
2022/01/03 05:40:23;;;;;;;27.80;5.03;;;9.80;99.90;;;;;;5073475;28;20036;-57
2022/01/03 05:42:50;;;;;;;26.15;4.78;;;9.70;99.90;;;;;;5092106;28;20047;-57
2022/01/03 05:45:15;;;;;;;;;;;9.70;99.90;;;;;;5092183;28;20127;-59
2022/01/03 05:47:44;;;;;;;25.65;4.15;;;9.70;99.90;;;;;;5091796;28;20601;-57
2022/01/03 05:50:10;;;;;;;33.55;5.03;;;9.70;99.90;;;;;;5091730;28;20044;-58
2022/01/03 05:52:36;;;;;;;34.05;4.97;;;9.70;99.90;;;;;;5091779;28;20043;-58
2022/01/03 05:55:02;;;;;;;24.00;6.00;;;9.70;99.90;;;;;;5091288;28;20077;-58
2022/01/03 05:57:27;;;;;;;23.38;3.65;;;9.60;99.90;;;;;;5091958;28;20043;-57
2022/01/03 05:59:53;;;;;;;22.73;4.30;;;9.70;99.90;;;;;;5092005;28;20044;-58
2022/01/03 06:02:18;;;;;;;27.77;4.47;;;9.70;99.90;;;;;;5093064;28;20040;-59
2022/01/03 06:04:59;;;;;;;28.98;4.57;;;9.60;99.90;;;;;;5097546;28;20043;-59
2022/01/03 06:07:25;;;;;;;22.15;3.88;;;9.60;99.90;;;;;;5095651;28;20050;-58
2022/01/03 06:09:52;;;;;;;25.23;3.85;;;9.60;99.90;;;;;;5073444;28;20130;-59
2022/01/03 06:12:18;;;;;;;22.73;3.80;;;9.60;99.90;;;;;;5091725;28;20040;-58
2022/01/03 06:14:45;;;;;;;31.90;5.32;;;9.50;99.90;;;;;;5073062;28;20051;-59
2022/01/03 06:17:11;;;;;;;22.90;4.10;;;9.50;99.90;;;;;;5091124;28;20098;-58
2022/01/03 06:19:37;;;;;;;28.83;3.58;;;9.50;99.90;;;;;;5090989;28;20043;-59
2022/01/03 06:22:04;;;;;;;41.67;4.38;;;9.50;99.90;;;;;;5090977;28;20032;-59
2022/01/03 06:24:30;;;;;;;28.35;5.22;;;9.40;99.90;;;;;;5090656;28;20139;-57
2022/01/03 06:26:56;;;;;;;26.10;4.38;;;9.50;99.90;;;;;;5090866;28;20544;-57
2022/01/03 06:29:22;;;;;;;24.75;4.28;;;9.50;99.90;;;;;;5090759;28;20044;-57
2022/01/03 06:31:48;;;;;;;33.08;5.35;;;9.50;99.90;;;;;;5072909;28;20558;-58
2022/01/03 06:34:15;;;;;;;32.50;4.15;;;9.50;99.90;;;;;;5090795;28;20055;-58
2022/01/03 06:36:42;;;;;;;43.42;5.90;;;9.50;99.90;;;;;;5090125;28;20044;-58
2022/01/03 06:39:09;;;;;;;26.70;5.13;;;9.50;99.90;;;;;;5090949;28;20040;-58
2022/01/03 06:41:36;;;;;;;31.95;5.88;;;9.60;99.90;;;;;;5098767;28;20554;-59
2022/01/03 06:44:02;;;;;;;32.55;4.93;;;9.60;99.90;;;;;;5089808;28;20032;-57
2022/01/03 06:46:27;;;;;;;31.70;7.13;;;9.60;99.90;;;;;;5090415;28;20401;-59
2022/01/03 06:48:53;;;;;;;33.30;5.27;;;9.50;99.90;;;;;;5090297;28;20047;-57
2022/01/03 06:51:18;;;;;;;27.93;4.67;;;9.50;99.90;;;;;;5090365;28;20536;-57
2022/01/03 06:53:44;;;;;;;29.33;4.17;;;9.60;99.90;;;;;;5090669;28;20039;-58
2022/01/03 06:56:10;;;;;;;26.27;4.77;;;9.60;99.90;;;;;;5103992;28;20086;-57
2022/01/03 06:58:38;;;;;;;28.35;4.22;;;9.50;99.90;;;;;;5110564;28;20488;-58
2022/01/03 07:01:04;;;;;;;27.75;5.50;;;9.50;99.90;;;;;;5088716;28;20535;-59
2022/01/03 07:03:30;;;;;;;30.73;3.72;;;9.50;99.90;;;;;;5104828;28;20133;-58
2022/01/03 07:05:56;;;;;;;28.15;6.88;;;9.50;99.90;;;;;;5093178;28;20149;-57
2022/01/03 07:08:21;;;;;;;24.48;3.78;;;9.50;99.90;;;;;;5090679;28;20036;-56
2022/01/03 07:10:48;;;;;;;26.53;5.00;;;9.60;99.90;;;;;;5090438;28;20071;-59
2022/01/03 07:13:14;;;;;;;32.60;4.75;;;9.60;99.90;;;;;;5090275;28;20775;-58
2022/01/03 07:21:08;;;;;;;28.27;6.35;;;9.60;99.90;;;;;;5090332;28;20123;-59
2022/01/03 07:23:34;;;;;;;38.78;5.82;;;9.70;99.90;;;;;;5090723;28;20107;-59
2022/01/03 07:26:00;;;;;;;27.92;4.05;;;9.70;99.90;;;;;;5090176;28;20415;-59
2022/01/03 07:28:26;;;;;;;31.90;5.40;;;9.80;99.90;;;;;;5071626;28;20115;-59
2022/01/03 07:30:52;;;;;;;28.65;4.03;;;9.80;99.90;;;;;;5077889;28;20488;-59
2022/01/03 07:33:17;;;;;;;30.65;4.38;;;9.80;99.90;;;;;;5096426;28;20047;-60
2022/01/03 07:35:43;;;;;;;37.33;5.50;;;9.80;99.90;;;;;;5096566;28;20034;-61
2022/01/03 07:38:09;;;;;;;29.00;6.70;;;9.80;99.90;;;;;;5065851;28;20128;-60
2022/01/03 07:40:34;;;;;;;26.17;4.50;;;9.80;99.90;;;;;;5093429;28;20060;-60
2022/01/03 07:43:00;;;;;;;30.83;4.30;;;9.80;99.90;;;;;;5075737;28;20032;-58
2022/01/03 07:45:26;;;;;;;24.05;4.00;;;9.90;99.90;;;;;;5074874;28;20122;-60
2022/01/03 07:47:52;;;;;;;26.23;4.35;;;9.90;99.90;;;;;;5101151;28;20051;-59
2022/01/03 07:50:18;;;;;;;47.30;5.57;;;9.90;99.90;;;;;;5100437;28;20039;-60
2022/01/03 07:52:44;;;;;;;27.00;4.50;;;9.90;99.90;;;;;;5097970;28;20063;-59
2022/01/03 07:55:11;;;;;;;30.05;4.35;;;9.90;99.90;;;;;;5103316;28;20129;-58
2022/01/03 07:57:37;;;;;;;29.73;5.85;;;9.90;99.90;;;;;;5096738;28;20523;-61
2022/01/03 08:00:06;;;;;;;37.22;5.75;;;9.90;99.90;;;;;;5096558;28;20040;-60
2022/01/03 08:02:32;;;;;;;36.17;4.07;;;9.90;99.90;;;;;;5077728;28;20032;-60
2022/01/03 08:04:57;;;;;;;34.43;4.77;;;9.90;99.90;;;;;;5076521;28;20188;-59
2022/01/03 08:07:23;;;;;;;27.80;5.55;;;9.90;99.90;;;;;;5077046;28;20040;-60
2022/01/03 08:09:49;;;;;;;28.85;5.05;;;9.90;99.90;;;;;;5079390;28;20072;-60
2022/01/03 08:12:16;;;;;;;36.58;5.97;;;9.90;99.90;;;;;;5080659;28;20039;-60
2022/01/03 08:14:42;;;;;;;33.55;5.63;;;9.90;99.90;;;;;;5077930;28;20032;-59
2022/01/03 08:17:08;;;;;;;28.52;6.22;;;9.90;99.90;;;;;;5081113;28;20039;-60
2022/01/03 08:19:34;;;;;;;37.55;4.72;;;9.90;99.90;;;;;;5064747;28;20028;-60
2022/01/03 08:22:00;;;;;;;33.75;4.22;;;9.90;99.90;;;;;;5072325;28;20047;-59
2022/01/03 08:24:26;;;;;;;30.75;6.60;;;9.90;99.90;;;;;;5079570;28;20464;-60
2022/01/03 08:26:51;;;;;;;28.02;5.75;;;9.90;99.90;;;;;;5077805;28;20024;-60
2022/01/03 08:29:17;;;;;;;30.30;5.97;;;9.90;99.90;;;;;;5081045;28;20504;-61
2022/01/03 08:31:43;;;;;;;55.92;6.28;;;9.90;99.90;;;;;;5055492;28;20024;-62
2022/01/03 08:34:08;;;;;;;41.53;6.57;;;9.90;99.90;;;;;;5075065;28;20070;-62
2022/01/03 08:36:34;;;;;;;59.10;7.10;;;9.90;99.90;;;;;;5077941;28;20043;-62
2022/01/03 08:39:00;;;;;;;59.78;6.80;;;9.90;99.90;;;;;;5068771;28;20044;-61
2022/01/03 08:41:26;;;;;;;74.53;10.02;;;10.00;99.90;;;;;;5078870;28;20038;-62
2022/01/03 08:43:52;;;;;;;31.27;4.20;;;10.00;99.90;;;;;;5049904;28;20036;-62
2022/01/03 08:46:19;;;;;;;35.00;5.13;;;10.00;99.90;;;;;;5073810;28;20036;-61
2022/01/03 08:48:45;;;;;;;29.85;4.60;;;10.00;99.90;;;;;;5081859;28;20122;-62
2022/01/03 08:51:10;;;;;;;33.97;5.40;;;10.00;99.90;;;;;;5079518;28;20115;-62
2022/01/03 08:53:36;;;;;;;39.90;4.20;;;10.00;99.90;;;;;;5075539;28;20044;-62
2022/01/03 08:56:02;;;;;;;28.77;4.55;;;10.10;99.90;;;;;;5083166;28;20059;-62
2022/01/03 08:58:28;;;;;;;38.33;5.30;;;10.10;99.90;;;;;;5069000;28;20050;-62
2022/01/03 09:00:54;;;;;;;32.53;4.50;;;10.10;99.90;;;;;;5080021;28;20083;-62
2022/01/03 09:03:20;;;;;;;28.50;4.07;;;10.10;99.90;;;;;;5086190;28;20042;-62
2022/01/03 09:05:46;;;;;;;30.42;6.50;;;10.10;99.90;;;;;;5076410;28;20625;-62
2022/01/03 09:08:12;;;;;;;;;;;10.20;99.90;;;;;;5076191;28;20118;-62
2022/01/03 09:10:39;;;;;;;32.42;4.13;;;10.10;99.90;;;;;;5061667;28;19998;-62
2022/01/03 09:13:05;;;;;;;41.72;6.65;;;10.10;99.90;;;;;;5060779;28;20550;-62
2022/01/03 09:15:31;;;;;;;30.53;3.63;;;10.10;99.90;;;;;;5075935;28;20138;-62
2022/01/03 09:17:56;;;;;;;27.80;4.22;;;10.20;99.90;;;;;;5084330;28;20299;-62
2022/01/03 09:20:22;;;;;;;31.65;5.20;;;10.10;99.90;;;;;;5076520;28;20028;-62
2022/01/03 09:22:54;;;;;;;27.60;5.97;;;10.20;99.90;;;;;;5073406;28;20084;-62
2022/01/03 09:30:45;;;;;;;28.90;5.20;;;10.20;99.90;;;;;;5077346;28;20047;-62
2022/01/03 09:33:12;;;;;;;19.07;3.77;;;10.20;99.90;;;;;;5084185;28;20027;-62
2022/01/03 09:35:38;;;;;;;;;;;10.20;99.90;;;;;;5080013;28;20050;-62
2022/01/03 09:38:03;;;;;;;23.98;4.53;;;10.30;99.90;;;;;;5078225;28;20340;-62
2022/01/03 09:40:29;;;;;;;26.73;5.60;;;10.20;99.90;;;;;;5080375;28;20032;-62
2022/01/03 09:43:00;;;;;;;32.13;5.57;;;10.20;99.90;;;;;;5082049;28;20059;-62
2022/01/03 09:45:28;;;;;;;36.95;6.38;;;10.30;99.90;;;;;;5074233;28;20043;-62
2022/01/03 09:47:55;;;;;;;22.98;3.63;;;10.30;99.90;;;;;;5040102;28;20643;-62
2022/01/03 09:50:22;;;;;;;33.72;4.53;;;10.30;99.90;;;;;;5073705;28;20128;-62
2022/01/03 09:52:50;;;;;;;21.92;3.00;;;10.30;99.90;;;;;;5055993;28;20086;-62
2022/01/03 09:55:18;;;;;;;22.33;4.28;;;10.30;99.90;;;;;;5078954;28;20039;-62
2022/01/03 09:57:45;;;;;;;29.92;3.92;;;10.30;99.90;;;;;;5061348;28;20082;-61
2022/01/03 10:00:22;;;;;;;23.45;3.97;;;10.30;99.90;;;;;;5060932;28;20115;-62
2022/01/03 10:02:52;;;;;;;21.10;3.38;;;10.30;99.90;;;;;;5072042;28;20040;-61
2022/01/03 10:05:19;;;;;;;27.77;3.53;;;10.40;99.90;;;;;;5080630;28;20039;-62
2022/01/03 10:07:44;;;;;;;19.65;3.85;;;10.40;99.90;;;;;;5079349;28;20036;-61
2022/01/03 10:10:12;;;;;;;22.92;4.05;;;10.40;99.90;;;;;;5073393;28;20062;-61
2022/01/03 10:12:38;;;;;;;25.65;3.92;;;10.40;99.90;;;;;;5059945;28;20458;-62
2022/01/03 10:15:08;;;;;;;;;;;10.40;99.90;;;;;;5082282;28;20042;-61
2022/01/03 10:17:38;;;;;;;19.50;3.17;;;10.40;99.90;;;;;;5075886;28;19931;-62
2022/01/03 10:20:10;;;;;;;30.23;4.55;;;10.50;99.90;;;;;;5070514;28;20051;-61
2022/01/03 10:22:36;;;;;;;22.60;2.63;;;10.50;99.90;;;;;;5077436;28;20070;-62
2022/01/03 10:25:11;;;;;;;28.50;3.60;;;10.50;99.90;;;;;;5076509;28;20132;-61
2022/01/03 10:28:04;;;;;;;25.85;4.45;;;10.50;99.90;;;;;;5071143;28;20040;-62
2022/01/03 10:30:42;;;;;;;17.52;3.80;;;10.50;99.90;;;;;;5071279;28;20071;-62
2022/01/03 10:33:12;;;;;;;29.65;3.90;;;10.50;99.90;;;;;;5074549;28;20113;-61
2022/01/03 10:35:53;;;;;;;27.55;4.28;;;10.60;99.90;;;;;;5080192;28;20031;-61
2022/01/03 10:38:45;;;;;;;20.85;4.88;;;10.60;99.90;;;;;;5077092;28;20093;-61
2022/01/03 10:41:14;;;;;;;34.35;4.88;;;10.60;99.90;;;;;;5065481;28;20114;-62
2022/01/03 10:43:45;;;;;;;20.60;3.25;;;10.60;99.90;;;;;;5060852;28;20477;-62
2022/01/03 10:46:26;;;;;;;22.10;3.75;;;10.60;99.90;;;;;;5073108;28;20047;-61
2022/01/03 10:48:56;;;;;;;22.50;3.38;;;10.60;99.90;;;;;;5069500;28;20040;-62
2022/01/03 10:51:27;;;;;;;24.75;3.03;;;10.60;99.90;;;;;;5081660;28;20123;-61
2022/01/03 10:53:56;;;;;;;17.75;2.92;;;10.60;99.90;;;;;;5078089;28;20127;-62
2022/01/03 10:56:31;;;;;;;26.00;3.80;;;10.70;99.90;;;;;;5074907;28;20571;-61
2022/01/03 10:59:25;;;;;;;24.50;5.00;;;10.90;99.90;;;;;;5078266;28;20029;-62
2022/01/03 11:01:58;;;;;;;16.98;3.15;;;11.20;99.90;;;;;;5079972;28;20128;-62
2022/01/03 11:04:36;;;;;;;26.88;2.75;;;11.20;99.90;;;;;;5077444;28;20036;-61
2022/01/03 11:13:07;;;;;;;22.23;4.03;;;11.70;99.90;;;;;;5080357;28;20035;-62
2022/01/03 11:15:33;;;;;;;21.60;3.95;;;11.90;99.90;;;;;;5077574;28;20512;-61
2022/01/03 11:18:13;;;;;;;19.95;3.40;;;11.90;99.90;;;;;;5079444;28;20063;-62
2022/01/03 11:20:40;;;;;;;27.38;3.90;;;11.70;99.90;;;;;;5078583;28;20036;-61
2022/01/03 11:23:06;;;;;;;28.42;4.30;;;11.50;99.90;;;;;;5082834;28;20107;-61
2022/01/03 11:25:34;;;;;;;19.88;3.42;;;11.40;99.90;;;;;;5061796;28;20127;-62
2022/01/03 11:28:00;;;;;;;22.23;2.58;;;11.30;99.90;;;;;;5079885;28;20126;-62
2022/01/03 11:30:26;;;;;;;23.83;3.60;;;11.30;99.90;;;;;;5040817;28;20040;-62
2022/01/03 11:32:52;;;;;;;20.95;3.85;;;11.20;99.90;;;;;;5077209;28;20067;-62
2022/01/03 11:35:19;;;;;;;21.00;3.55;;;11.30;99.90;;;;;;5061032;28;20469;-59
2022/01/03 11:37:48;;;;;;;13.75;2.80;;;11.50;99.90;;;;;;5083151;28;20599;-60
2022/01/03 11:40:16;;;;;;;13.82;2.47;;;11.60;99.90;;;;;;5078535;28;20488;-59
2022/01/03 11:42:45;;;;;;;24.10;3.35;;;11.70;99.90;;;;;;5074523;28;20506;-60
2022/01/03 11:45:11;;;;;;;20.48;3.22;;;11.70;99.90;;;;;;5072022;28;20043;-60
2022/01/03 11:47:38;;;;;;;20.45;3.97;;;11.90;99.90;;;;;;5058503;28;20450;-59
2022/01/03 11:50:04;;;;;;;;;;;12.30;99.90;;;;;;5079279;28;20388;-60
2022/01/03 11:52:31;;;;;;;22.95;2.83;;;12.80;99.90;;;;;;5072487;28;19920;-59
2022/01/03 11:54:56;;;;;;;;;;;13.00;99.90;;;;;;5078221;28;20460;-60
2022/01/03 11:57:43;;;;;;;20.48;2.97;;;13.30;99.80;;;;;;5086722;28;19924;-60
2022/01/03 12:05:50;;;;;;;19.45;2.88;;;13.90;97.60;;;;;;5077959;28;20527;-59
2022/01/03 12:08:30;;;;;;;20.15;4.15;;;14.10;98.30;;;;;;5080500;28;20408;-60
2022/01/03 12:11:00;;;;;;;23.13;3.05;;;14.10;96.10;;;;;;5059692;28;20560;-60
2022/01/03 12:13:49;;;;;;;23.73;4.10;;;14.30;97.10;;;;;;5074518;28;20047;-60
2022/01/03 12:16:15;;;;;;;19.80;5.40;;;14.60;97.40;;;;;;5081357;28;20039;-60
2022/01/03 12:19:00;;;;;;;18.38;3.70;;;15.10;97.00;;;;;;5056616;28;20043;-60
2022/01/03 12:21:48;;;;;;;23.75;4.10;;;15.30;91.70;;;;;;5078247;28;20529;-60
2022/01/03 12:24:26;;;;;;;;;;;15.10;92.30;;;;;;5073836;28;20032;-60
2022/01/03 12:27:09;;;;;;;18.50;3.00;;;15.20;94.90;;;;;;5059923;28;19943;-60
2022/01/03 12:32:25;;;;;;;14.52;2.72;;;15.50;92.20;;;;;;5070868;28;20059;-60
2022/01/03 12:35:09;;;;;;;25.80;3.40;;;15.50;93.20;;;;;;5077046;28;20044;-60
2022/01/03 12:37:39;;;;;;;21.48;3.15;;;15.40;91.30;;;;;;5078056;28;20048;-61
2022/01/03 12:40:05;;;;;;;20.92;3.22;;;15.50;91.30;;;;;;5079209;28;20486;-59
2022/01/03 12:42:49;;;;;;;20.50;2.90;;;15.20;92.50;;;;;;5079911;28;20047;-59
2022/01/03 12:45:30;;;;;;;21.77;2.58;;;15.20;91.90;;;;;;5082866;28;20339;-58
2022/01/03 12:48:10;;;;;;;21.42;3.13;;;15.00;90.80;;;;;;5078203;28;20135;-58
2022/01/03 12:50:43;;;;;;;13.80;2.60;;;14.80;92.60;;;;;;5082151;28;20092;-58
2022/01/03 12:53:32;;;;;;;25.23;4.60;;;15.10;94.50;;;;;;5078921;28;20039;-60
2022/01/03 12:56:00;;;;;;;24.00;3.55;;;15.50;91.50;;;;;;5057776;28;20045;-57
2022/01/03 12:58:26;;;;;;;18.23;2.72;;;15.60;92.40;;;;;;5073884;28;20043;-58
2022/01/03 13:01:00;;;;;;;20.57;3.00;;;15.60;91.30;;;;;;5080696;28;20484;-55
2022/01/03 13:03:25;;;;;;;21.73;3.75;;;15.80;92.10;;;;;;5080243;28;20279;-59
2022/01/03 13:06:13;;;;;;;23.73;3.70;;;15.90;89.50;;;;;;5070636;28;20523;-55
2022/01/03 13:08:48;;;;;;;22.50;3.60;;;15.80;86.50;;;;;;5076809;28;20352;-58
2022/01/03 13:11:33;;;;;;;42.95;4.65;;;15.30;90.90;;;;;;5076142;28;20036;-59
2022/01/03 13:14:20;;;;;;;22.55;3.67;;;15.10;90.60;;;;;;5065368;28;20036;-58
2022/01/03 13:16:58;;;;;;;24.80;4.18;;;14.40;90.40;;;;;;5052243;28;20347;-58
2022/01/03 13:19:29;;;;;;;19.98;3.10;;;14.00;93.70;;;;;;5075869;28;20044;-59